Amantha, North Carolina
Current Conditions -  °F | °C
As of 5:55 PM on Monday 24 Nov 2014 (Local Time) from KTNB Reporting Station
Clear Clear  
Wind Chill: 57°   Ceiling: Unl
Heat Index: 57°   Visibility: 10mi
Dew Point: 49°   Wind: 5mph
Humidity: 75%   Direction: 190°S
Pressure: 29.84"   Gusts: NA
Location:  36.2666°N, 81.8431°W
Report Text: KTNB 242255Z AUTO 19004KT 10SM CLR 14/10 A2984 RMK AO2 T01410097
Loading
Personal Weather Stations






























Interactive Weather Map New forecast layout! Learn more

10-Day Weather Forecast

Advertisements
Track Severe Weather on mobile